createdAt,value
2019-03-23T00:00:24.636Z,41.80
2019-03-23T00:02:53.872Z,43.30
2019-03-23T00:05:23.045Z,42.20
2019-03-23T00:07:52.389Z,43.10
2019-03-23T00:10:21.600Z,42.70
2019-03-23T00:12:50.759Z,42.80
2019-03-23T00:15:19.882Z,43.50
2019-03-23T00:17:49.123Z,43.90
2019-03-23T00:20:18.244Z,45.00
2019-03-23T00:22:47.404Z,44.70
2019-03-23T00:25:16.703Z,44.90
2019-03-23T00:27:49.102Z,44.70
2019-03-23T00:30:18.419Z,45.70
2019-03-23T00:32:47.627Z,46.10
2019-03-23T00:35:17.029Z,47.10
2019-03-23T00:37:46.287Z,46.40
2019-03-23T00:40:15.411Z,46.90
2019-03-23T00:42:44.683Z,47.80
2019-03-23T00:45:13.897Z,47.60
2019-03-23T00:47:43.069Z,47.50
2019-03-23T00:50:12.291Z,48.30
2019-03-23T00:52:41.657Z,48.80
2019-03-23T00:55:11.194Z,48.00
2019-03-23T00:57:40.261Z,48.10
2019-03-23T01:00:11.390Z,48.40
2019-03-23T01:02:41.945Z,49.10
2019-03-23T01:05:11.482Z,50.40
2019-03-23T01:07:40.524Z,49.00
2019-03-23T01:10:13.349Z,49.60
2019-03-23T01:12:42.730Z,49.50
2019-03-23T01:15:13.257Z,51.40
2019-03-23T01:17:42.557Z,51.50
2019-03-23T01:20:12.508Z,52.30
2019-03-23T01:22:41.725Z,53.10
2019-03-23T01:25:11.172Z,53.60
2019-03-23T01:27:40.560Z,53.50
2019-03-23T01:30:16.521Z,54.20
2019-03-23T01:32:46.012Z,54.00
2019-03-23T01:35:15.281Z,55.00
2019-03-23T01:37:44.678Z,54.80
2019-03-23T01:40:14.460Z,55.00
2019-03-23T01:42:43.660Z,54.20
2019-03-23T01:45:13.261Z,56.30
2019-03-23T01:47:42.393Z,55.20
2019-03-23T01:50:12.134Z,54.80
2019-03-23T01:52:41.437Z,54.10
2019-03-23T01:55:10.733Z,54.70
2019-03-23T01:57:40.076Z,55.70
2019-03-23T02:00:11.320Z,55.20
2019-03-23T02:02:40.595Z,55.90
2019-03-23T02:05:10.018Z,56.80
2019-03-23T02:07:39.325Z,57.50
2019-03-23T02:10:10.092Z,58.30
2019-03-23T02:12:39.372Z,58.10
2019-03-23T02:15:10.258Z,59.20
2019-03-23T02:17:39.564Z,59.70
2019-03-23T02:20:11.056Z,59.60
2019-03-23T02:22:40.216Z,59.90
2019-03-23T02:25:09.588Z,60.20
2019-03-23T02:27:38.943Z,61.00
2019-03-23T02:30:10.543Z,60.60
2019-03-23T02:32:39.973Z,62.70
2019-03-23T02:35:09.401Z,62.40
2019-03-23T02:37:38.595Z,62.40
2019-03-23T02:40:11.517Z,61.20
2019-03-23T02:42:40.844Z,62.60
2019-03-23T02:45:12.168Z,63.80
2019-03-23T02:47:41.314Z,64.00
2019-03-23T02:50:11.116Z,63.50
2019-03-23T02:52:40.363Z,65.10
2019-03-23T02:55:10.033Z,65.30
2019-03-23T02:57:39.352Z,63.90
2019-03-23T03:00:13.007Z,63.40
2019-03-23T03:02:42.113Z,63.40
2019-03-23T03:05:11.406Z,62.60
2019-03-23T03:07:43.183Z,62.10
2019-03-23T03:10:12.145Z,62.60
2019-03-23T03:15:10.761Z,62.70
2019-03-23T03:17:39.888Z,63.30
2019-03-23T03:20:10.281Z,63.10
2019-03-23T03:22:39.520Z,62.40
2019-03-23T03:25:08.886Z,63.00
2019-03-23T03:27:38.160Z,63.80
2019-03-23T03:30:11.396Z,64.30
2019-03-23T03:32:40.519Z,62.90
2019-03-23T03:35:09.969Z,63.10
2019-03-23T03:37:39.216Z,63.20
2019-03-23T03:40:09.518Z,63.10
2019-03-23T03:42:38.865Z,63.10
2019-03-23T03:45:08.880Z,63.10
2019-03-23T03:47:41.051Z,63.90
2019-03-23T03:50:09.035Z,63.60
2019-03-23T03:52:38.254Z,64.70
2019-03-23T03:55:08.611Z,63.80
2019-03-23T03:57:37.580Z,64.50
2019-03-23T04:00:07.708Z,63.20
2019-03-23T04:02:36.914Z,64.20
2019-03-23T04:05:06.767Z,63.70
2019-03-23T04:07:36.040Z,64.10
2019-03-23T04:10:06.869Z,64.50
2019-03-23T04:12:36.164Z,64.00
2019-03-23T04:15:07.344Z,64.10
2019-03-23T04:17:36.438Z,64.10
2019-03-23T04:20:06.973Z,63.10
2019-03-23T04:22:36.154Z,63.50
2019-03-23T04:25:06.852Z,63.20
2019-03-23T04:27:36.066Z,63.80
2019-03-23T04:30:07.307Z,63.50
2019-03-23T04:32:36.657Z,63.90
2019-03-23T04:35:06.706Z,64.30
2019-03-23T04:37:35.930Z,64.00
2019-03-23T04:40:06.808Z,63.00
2019-03-23T04:42:36.033Z,63.00
2019-03-23T04:45:07.025Z,63.70
2019-03-23T04:47:36.303Z,64.20
2019-03-23T04:50:10.294Z,62.80
2019-03-23T04:52:39.389Z,63.50
2019-03-23T04:55:12.500Z,63.10
2019-03-23T04:57:41.669Z,62.80
2019-03-23T05:00:13.972Z,63.10
2019-03-23T05:02:43.289Z,63.20
2019-03-23T05:05:12.897Z,63.50
2019-03-23T05:07:41.873Z,62.40
2019-03-23T05:10:11.524Z,62.80
2019-03-23T05:12:40.721Z,62.30
2019-03-23T05:15:10.094Z,63.60
2019-03-23T05:17:39.375Z,63.90
2019-03-23T05:20:10.344Z,63.30
2019-03-23T05:22:39.608Z,62.90
2019-03-23T05:25:11.800Z,63.00
2019-03-23T05:27:41.099Z,63.60
2019-03-23T05:30:10.452Z,63.00
2019-03-23T05:32:39.783Z,62.40
2019-03-23T05:35:08.957Z,62.20
2019-03-23T05:37:38.238Z,62.60
2019-03-23T05:40:07.597Z,62.60
2019-03-23T05:42:36.842Z,62.30
2019-03-23T05:45:09.273Z,62.80
2019-03-23T05:47:38.589Z,63.30
2019-03-23T05:50:08.133Z,62.90
2019-03-23T05:52:37.308Z,62.90
2019-03-23T05:55:06.634Z,62.80
2019-03-23T05:57:35.979Z,62.80
2019-03-23T06:00:07.041Z,62.80
2019-03-23T06:02:36.353Z,62.60
2019-03-23T06:05:06.851Z,62.70
2019-03-23T06:07:35.913Z,63.10
2019-03-23T06:10:07.061Z,62.40
2019-03-23T06:12:36.337Z,62.60
2019-03-23T06:15:06.116Z,63.10
2019-03-23T06:17:35.364Z,62.00
2019-03-23T06:20:05.711Z,62.40
2019-03-23T06:22:34.893Z,63.10
2019-03-23T06:25:05.592Z,62.60
2019-03-23T06:27:34.848Z,62.80
2019-03-23T06:30:04.505Z,62.30
2019-03-23T06:32:33.861Z,62.10
2019-03-23T06:35:03.112Z,61.90
2019-03-23T06:37:32.359Z,62.10
2019-03-23T06:40:01.573Z,62.10
2019-03-23T06:42:30.845Z,61.90
2019-03-23T06:45:00.045Z,61.50
2019-03-23T06:47:29.403Z,62.20
2019-03-23T06:49:58.781Z,61.60
2019-03-23T06:52:28.034Z,61.90
2019-03-23T06:54:57.300Z,61.60
2019-03-23T06:57:26.538Z,62.00
2019-03-23T06:59:55.681Z,61.70
2019-03-23T07:02:24.801Z,61.60
2019-03-23T07:04:54.070Z,61.70
2019-03-23T07:07:23.400Z,61.50
2019-03-23T07:09:52.750Z,61.60
2019-03-23T07:12:21.730Z,61.10
2019-03-23T07:14:51.137Z,62.20
2019-03-23T07:17:20.393Z,61.40
2019-03-23T07:19:49.488Z,61.70
2019-03-23T07:22:18.616Z,61.30
2019-03-23T07:24:47.912Z,61.70
2019-03-23T07:27:17.159Z,60.90
2019-03-23T07:29:46.332Z,61.40
2019-03-23T07:32:15.508Z,60.30
2019-03-23T07:34:44.794Z,61.10
2019-03-23T07:37:14.071Z,60.20
2019-03-23T07:39:43.210Z,61.80
2019-03-23T07:42:12.445Z,60.40
2019-03-23T07:44:41.754Z,60.00
2019-03-23T07:47:11.036Z,59.90
2019-03-23T07:49:40.189Z,59.80
2019-03-23T07:52:09.590Z,60.50
2019-03-23T07:54:38.857Z,60.10
2019-03-23T07:57:08.126Z,59.40
2019-03-23T07:59:37.251Z,59.50
2019-03-23T08:02:06.587Z,59.30
2019-03-23T08:04:35.802Z,59.30
2019-03-23T08:07:05.182Z,59.40
2019-03-23T08:09:37.867Z,59.70
2019-03-23T08:12:05.322Z,59.40
2019-03-23T08:14:36.165Z,59.40
2019-03-23T08:17:05.177Z,59.30
2019-03-23T08:19:34.431Z,59.10
2019-03-23T08:22:03.780Z,59.80
2019-03-23T08:24:32.987Z,59.20
2019-03-23T08:27:02.550Z,59.60
2019-03-23T08:29:31.544Z,59.00
2019-03-23T08:32:00.836Z,58.90
2019-03-23T08:34:30.097Z,58.80
2019-03-23T08:36:59.347Z,58.80
2019-03-23T08:39:28.672Z,58.60
2019-03-23T08:41:59.451Z,58.60
2019-03-23T08:44:28.697Z,58.50
2019-03-23T08:46:58.017Z,58.80
2019-03-23T08:49:28.648Z,58.80
2019-03-23T08:51:57.937Z,58.70
2019-03-23T08:54:27.070Z,58.30
2019-03-23T08:56:56.363Z,58.50
2019-03-23T08:59:25.677Z,58.90
2019-03-23T09:01:54.931Z,58.30
2019-03-23T09:04:24.130Z,58.80
2019-03-23T09:06:53.293Z,58.30
2019-03-23T09:09:22.731Z,58.30
2019-03-23T09:11:51.952Z,59.50
2019-03-23T09:14:23.407Z,58.60
2019-03-23T09:16:51.907Z,58.30
2019-03-23T09:19:21.230Z,58.40
2019-03-23T09:21:50.466Z,58.20
2019-03-23T09:24:19.698Z,58.10
2019-03-23T09:26:48.997Z,58.20
2019-03-23T09:29:18.237Z,58.00
2019-03-23T09:31:47.494Z,58.00
2019-03-23T09:34:16.685Z,58.40
2019-03-23T09:36:45.883Z,57.90
2019-03-23T09:39:15.049Z,57.80
2019-03-23T09:41:44.336Z,58.30
2019-03-23T09:44:13.461Z,57.60
2019-03-23T09:46:42.830Z,58.10
2019-03-23T09:49:12.198Z,57.30
2019-03-23T09:51:41.572Z,57.70
2019-03-23T09:54:10.829Z,57.30
2019-03-23T09:56:40.173Z,57.40
2019-03-23T09:59:09.486Z,57.30
2019-03-23T10:01:38.819Z,57.80
2019-03-23T10:04:08.022Z,57.20
2019-03-23T10:06:37.279Z,57.50
2019-03-23T10:09:07.152Z,57.30
2019-03-23T10:11:36.273Z,57.70
2019-03-23T10:14:05.361Z,56.90
2019-03-23T10:16:34.745Z,57.00
2019-03-23T10:19:03.996Z,57.10
2019-03-23T10:21:33.285Z,57.00
2019-03-23T10:24:02.556Z,56.80
2019-03-23T10:26:31.713Z,56.40
2019-03-23T10:29:00.918Z,56.10
2019-03-23T10:31:30.164Z,56.20
2019-03-23T10:33:59.265Z,56.10
2019-03-23T10:36:28.513Z,55.70
2019-03-23T10:38:57.684Z,55.60
2019-03-23T10:41:27.066Z,56.20
2019-03-23T10:43:56.169Z,55.60
2019-03-23T10:46:25.313Z,55.40
2019-03-23T10:48:54.651Z,55.60
2019-03-23T10:51:23.768Z,56.20
2019-03-23T10:53:52.983Z,55.50
2019-03-23T10:56:22.095Z,55.30
2019-03-23T10:58:51.365Z,55.80
2019-03-23T11:01:20.559Z,55.50
2019-03-23T11:03:49.713Z,55.20
2019-03-23T11:06:19.065Z,54.30
2019-03-23T11:08:48.264Z,54.20
2019-03-23T11:11:17.457Z,53.80
2019-03-23T11:13:46.757Z,53.40
2019-03-23T11:16:15.963Z,53.00
2019-03-23T11:18:45.263Z,53.50
2019-03-23T11:21:14.601Z,53.30
2019-03-23T11:23:45.493Z,52.90
2019-03-23T11:26:14.444Z,54.20
2019-03-23T11:28:43.495Z,53.20
2019-03-23T11:31:13.022Z,54.00
2019-03-23T11:33:42.289Z,52.80
2019-03-23T11:36:11.589Z,52.90
2019-03-23T11:38:40.811Z,52.30
2019-03-23T11:41:10.040Z,52.30
2019-03-23T11:43:39.296Z,52.90
2019-03-23T11:46:08.622Z,52.40
2019-03-23T11:48:37.752Z,52.50
2019-03-23T11:51:07.417Z,51.90
2019-03-23T11:53:36.677Z,51.60
2019-03-23T11:56:06.168Z,51.10
2019-03-23T11:58:35.376Z,51.20
2019-03-23T12:01:04.616Z,51.50
2019-03-23T12:03:33.979Z,50.20
2019-03-23T12:06:03.091Z,50.60
2019-03-23T12:08:32.278Z,50.10
2019-03-23T12:11:03.078Z,50.00
2019-03-23T12:13:32.231Z,50.30
2019-03-23T12:16:01.342Z,48.90
2019-03-23T12:18:30.471Z,49.10
2019-03-23T12:20:59.629Z,49.50
2019-03-23T12:23:29.014Z,49.00
2019-03-23T12:25:58.159Z,49.20
2019-03-23T12:28:27.493Z,49.00
2019-03-23T12:30:56.492Z,49.50
2019-03-23T12:33:25.709Z,49.90
2019-03-23T12:35:54.845Z,49.90
2019-03-23T12:38:24.045Z,49.60
2019-03-23T12:40:53.364Z,49.90
2019-03-23T12:43:22.696Z,50.00
2019-03-23T12:45:51.909Z,50.50
2019-03-23T12:48:21.156Z,50.00
2019-03-23T12:50:50.390Z,50.70
2019-03-23T12:53:19.692Z,50.10
2019-03-23T12:55:49.090Z,50.20
2019-03-23T12:58:18.260Z,50.40
2019-03-23T13:00:47.437Z,50.50
2019-03-23T13:03:16.800Z,50.90
2019-03-23T13:05:46.229Z,50.80
2019-03-23T13:08:15.352Z,50.80
2019-03-23T13:10:44.725Z,51.30
2019-03-23T13:13:13.930Z,51.30
2019-03-23T13:15:43.036Z,51.30
2019-03-23T13:18:12.393Z,50.60
2019-03-23T13:20:41.648Z,50.60
2019-03-23T13:23:12.662Z,51.20
2019-03-23T13:25:41.804Z,50.70
2019-03-23T13:28:11.269Z,51.20
2019-03-23T13:30:40.477Z,50.60
2019-03-23T13:33:09.611Z,50.80
2019-03-23T13:35:38.736Z,50.70
2019-03-23T13:38:08.061Z,50.50
2019-03-23T13:40:37.213Z,50.50
2019-03-23T13:43:06.528Z,50.60
2019-03-23T13:45:42.549Z,51.20
2019-03-23T13:48:06.617Z,50.90
2019-03-23T13:50:35.873Z,50.90
2019-03-23T13:53:05.252Z,51.50
2019-03-23T13:55:34.952Z,50.90
2019-03-23T13:58:09.279Z,51.60
2019-03-23T14:00:38.619Z,51.20
2019-03-23T14:03:08.373Z,51.20
2019-03-23T14:05:37.677Z,51.30
2019-03-23T14:08:06.773Z,51.90
2019-03-23T14:10:35.989Z,51.90
2019-03-23T14:13:05.303Z,51.90
2019-03-23T14:15:34.316Z,51.40
2019-03-23T14:18:03.486Z,51.60
2019-03-23T14:20:32.657Z,52.30
2019-03-23T14:23:02.941Z,51.80
2019-03-23T14:25:32.475Z,51.80
2019-03-23T14:28:01.963Z,52.50
2019-03-23T14:30:31.067Z,52.00
2019-03-23T14:33:00.339Z,52.00
2019-03-23T14:35:29.634Z,52.70
2019-03-23T14:37:58.792Z,52.30
2019-03-23T14:40:28.225Z,52.40
2019-03-23T14:42:57.413Z,52.50
2019-03-23T14:45:26.643Z,52.50
2019-03-23T14:47:55.889Z,53.00
2019-03-23T14:50:25.190Z,52.60
2019-03-23T14:52:54.337Z,52.60
2019-03-23T14:55:23.381Z,52.60
2019-03-23T14:57:52.612Z,52.80
2019-03-23T15:00:29.863Z,52.90
2019-03-23T15:02:59.160Z,53.10
2019-03-23T15:05:28.435Z,53.00
2019-03-23T15:07:57.725Z,52.90
2019-03-23T15:10:27.044Z,53.30
2019-03-23T15:12:56.232Z,53.40
2019-03-23T15:15:25.317Z,54.00
2019-03-23T15:17:54.588Z,53.50
2019-03-23T15:20:23.684Z,53.60
2019-03-23T15:22:52.953Z,53.80
2019-03-23T15:25:22.165Z,54.00
2019-03-23T15:27:51.272Z,54.50
2019-03-23T15:30:20.592Z,54.70
2019-03-23T15:32:49.847Z,54.20
2019-03-23T15:35:19.201Z,53.90
2019-03-23T15:37:48.283Z,54.10
2019-03-23T15:40:17.452Z,54.10
2019-03-23T15:42:46.633Z,54.10
2019-03-23T15:45:15.793Z,54.70
2019-03-23T15:47:44.967Z,54.00
2019-03-23T15:50:14.198Z,54.20
2019-03-23T15:52:43.456Z,54.70
2019-03-23T15:55:12.757Z,54.20
2019-03-23T15:57:41.876Z,54.40
2019-03-23T16:00:11.698Z,54.60
2019-03-23T16:02:40.979Z,54.60
2019-03-23T16:05:10.163Z,54.50
2019-03-23T16:07:39.366Z,55.10
2019-03-23T16:10:08.728Z,55.20
2019-03-23T16:12:38.082Z,55.00
2019-03-23T16:15:11.466Z,55.00
2019-03-23T16:17:40.752Z,55.50
2019-03-23T16:20:11.154Z,55.40
2019-03-23T16:22:40.366Z,56.10
2019-03-23T16:25:09.513Z,55.50
2019-03-23T16:27:38.775Z,55.70
2019-03-23T16:30:10.204Z,55.60
2019-03-23T16:32:39.448Z,55.50
2019-03-23T16:35:08.804Z,55.60
2019-03-23T16:37:37.908Z,56.40
2019-03-23T16:40:08.773Z,55.70
2019-03-23T16:42:45.142Z,55.60
2019-03-23T16:45:10.085Z,55.50
2019-03-23T16:47:39.248Z,56.50
2019-03-23T16:50:08.448Z,55.90
2019-03-23T16:52:38.411Z,56.40
2019-03-23T16:55:10.825Z,56.00
2019-03-23T16:57:40.014Z,56.30
2019-03-23T17:00:12.151Z,56.70
2019-03-23T17:02:41.466Z,56.40
2019-03-23T17:05:10.813Z,56.90
2019-03-23T17:07:40.078Z,56.40
2019-03-23T17:10:09.556Z,57.30
2019-03-23T17:12:38.854Z,56.80
2019-03-23T17:15:08.482Z,57.00
2019-03-23T17:17:37.543Z,56.80
2019-03-23T17:20:06.749Z,57.20
2019-03-23T17:22:35.949Z,56.90
2019-03-23T17:25:06.707Z,56.90
2019-03-23T17:27:36.043Z,57.50
2019-03-23T17:30:06.835Z,57.60
2019-03-23T17:32:36.540Z,56.80
2019-03-23T17:35:09.645Z,56.90
2019-03-23T17:37:38.818Z,57.20
2019-03-23T17:40:08.385Z,56.90
2019-03-23T17:42:37.599Z,57.60
2019-03-23T17:45:07.831Z,56.90
2019-03-23T17:47:37.136Z,57.10
2019-03-23T17:50:07.183Z,57.10
2019-03-23T17:52:36.429Z,57.40
2019-03-23T17:55:08.576Z,57.90
2019-03-23T17:57:37.992Z,57.70
2019-03-23T18:00:08.641Z,58.20
2019-03-23T18:02:38.463Z,58.70
2019-03-23T18:05:08.129Z,58.40
2019-03-23T18:07:37.364Z,58.30
2019-03-23T18:10:08.650Z,58.90
2019-03-23T18:12:37.859Z,59.40
2019-03-23T18:15:08.278Z,59.50
2019-03-23T18:17:37.485Z,60.40
2019-03-23T18:20:06.665Z,60.40
2019-03-23T18:22:35.769Z,60.20
2019-03-23T18:25:05.751Z,60.70
2019-03-23T18:27:35.991Z,61.60
2019-03-23T18:30:08.226Z,61.60
2019-03-23T18:32:37.504Z,62.00
2019-03-23T18:35:07.795Z,62.20
2019-03-23T18:37:36.933Z,62.00
2019-03-23T18:40:08.262Z,63.10
2019-03-23T18:42:37.579Z,62.50
2019-03-23T18:45:07.401Z,63.40
2019-03-23T18:47:36.557Z,63.70
2019-03-23T18:50:06.876Z,62.90
2019-03-23T18:52:35.976Z,63.00
2019-03-23T18:55:07.053Z,63.50
2019-03-23T18:57:36.257Z,63.80
2019-03-23T19:00:07.478Z,63.60
2019-03-23T19:02:36.743Z,63.40
2019-03-23T19:05:06.701Z,62.90
2019-03-23T19:07:35.869Z,63.20
2019-03-23T19:10:06.163Z,62.40
2019-03-23T19:12:35.590Z,62.40
2019-03-23T19:15:08.524Z,62.40
2019-03-23T19:17:39.775Z,62.30
2019-03-23T19:20:09.797Z,62.20
2019-03-23T19:22:40.164Z,62.10
2019-03-23T19:25:16.987Z,62.80
2019-03-23T19:27:42.062Z,63.00
2019-03-23T19:30:11.392Z,62.20
2019-03-23T19:32:41.889Z,62.00
2019-03-23T19:35:11.437Z,63.00
2019-03-23T19:37:40.678Z,62.60
2019-03-23T19:40:10.314Z,63.80
2019-03-23T19:42:39.675Z,63.00
2019-03-23T19:45:09.345Z,62.50
2019-03-23T19:47:38.537Z,62.70
2019-03-23T19:50:08.872Z,62.90
2019-03-23T19:52:38.037Z,62.90
2019-03-23T19:55:10.515Z,62.70
2019-03-23T19:57:39.868Z,62.70
2019-03-23T20:00:09.846Z,62.30
2019-03-23T20:02:39.363Z,63.80
2019-03-23T20:05:08.517Z,62.60
2019-03-23T20:07:37.871Z,63.80
2019-03-23T20:10:09.058Z,62.50
2019-03-23T20:12:39.431Z,63.10
2019-03-23T20:15:10.356Z,62.60
2019-03-23T20:17:39.736Z,64.10
2019-03-23T20:20:09.134Z,62.50
2019-03-23T20:22:38.546Z,63.90
2019-03-23T20:25:08.640Z,63.90
2019-03-23T20:27:37.983Z,63.20
2019-03-23T20:30:08.893Z,63.10
2019-03-23T20:32:38.336Z,63.50
2019-03-23T20:35:08.579Z,63.30
2019-03-23T20:37:37.789Z,64.00
2019-03-23T20:40:07.893Z,62.90
2019-03-23T20:42:37.316Z,63.10
2019-03-23T20:45:07.445Z,62.80
2019-03-23T20:47:37.395Z,62.90
2019-03-23T20:50:08.169Z,63.10
2019-03-23T20:52:37.404Z,62.00
2019-03-23T20:55:08.759Z,62.00
2019-03-23T20:57:38.365Z,63.40
2019-03-23T21:00:08.517Z,62.70
2019-03-23T21:02:38.029Z,62.90
2019-03-23T21:05:07.210Z,61.90
2019-03-23T21:07:37.353Z,62.30
2019-03-23T21:10:08.340Z,61.60
2019-03-23T21:12:38.197Z,62.10
2019-03-23T21:15:07.705Z,62.00
2019-03-23T21:17:36.942Z,61.50
2019-03-23T21:20:07.420Z,61.60
2019-03-23T21:22:37.644Z,62.10
2019-03-23T21:25:08.601Z,61.30
2019-03-23T21:27:38.640Z,61.40
2019-03-23T21:30:11.683Z,61.80
2019-03-23T21:32:41.008Z,61.00
2019-03-23T21:35:10.369Z,61.70
2019-03-23T21:37:39.738Z,61.60
2019-03-23T21:40:09.414Z,61.60
2019-03-23T21:42:39.082Z,60.90
2019-03-23T21:45:08.382Z,60.80
2019-03-23T21:47:37.741Z,60.60
2019-03-23T21:50:10.296Z,61.40
2019-03-23T21:52:39.748Z,60.90
2019-03-23T21:55:09.206Z,60.40
2019-03-23T21:57:38.438Z,60.30
2019-03-23T22:00:07.856Z,60.10
2019-03-23T22:02:36.920Z,60.60
2019-03-23T22:05:08.258Z,60.00
2019-03-23T22:07:37.567Z,60.10
2019-03-23T22:10:08.865Z,60.20
2019-03-23T22:12:38.280Z,60.20
2019-03-23T22:15:08.395Z,59.90
2019-03-23T22:17:37.729Z,59.80
2019-03-23T22:20:08.285Z,59.70
2019-03-23T22:22:37.713Z,59.70
2019-03-23T22:25:07.528Z,59.70
2019-03-23T22:27:37.657Z,59.90
2019-03-23T22:30:10.208Z,60.80
2019-03-23T22:32:39.489Z,60.30
2019-03-23T22:35:09.510Z,59.60
2019-03-23T22:37:38.729Z,59.60
2019-03-23T22:40:08.491Z,59.70
2019-03-23T22:42:37.703Z,59.80
2019-03-23T22:45:10.693Z,60.30
2019-03-23T22:47:39.796Z,59.50
2019-03-23T22:50:09.828Z,60.00
2019-03-23T22:52:39.027Z,60.00
2019-03-23T22:55:08.346Z,59.60
2019-03-23T22:57:37.592Z,59.60
2019-03-23T23:00:19.666Z,59.50
2019-03-23T23:02:48.903Z,59.60
2019-03-23T23:05:18.103Z,59.80
2019-03-23T23:07:47.437Z,59.50
2019-03-23T23:10:16.610Z,60.40
2019-03-23T23:12:45.994Z,60.00
2019-03-23T23:15:15.197Z,60.00
2019-03-23T23:17:44.273Z,60.70
2019-03-23T23:20:13.520Z,60.30
2019-03-23T23:22:42.762Z,59.60
2019-03-23T23:25:11.980Z,60.40
2019-03-23T23:27:41.257Z,60.50
2019-03-23T23:30:11.032Z,60.50
2019-03-23T23:32:40.275Z,60.50
2019-03-23T23:35:10.055Z,60.10
2019-03-23T23:37:39.404Z,60.00
2019-03-23T23:40:08.700Z,61.00
2019-03-23T23:42:38.013Z,60.50
2019-03-23T23:45:15.745Z,60.90
2019-03-23T23:47:41.942Z,60.80
2019-03-23T23:50:11.276Z,60.40
2019-03-23T23:52:40.501Z,60.40
2019-03-23T23:55:10.228Z,60.70
2019-03-23T23:57:39.547Z,60.60
